Time;durP1;ratioP1;P1;durP2;ratioP2;P2;SDS_P1;SDS_P2;PMS_P1;PMS_P2;Temp;Humidity;BMP_temperature;BMP_pressure;BME280_temperature;BME280_humidity;BME280_pressure;Samples;Min_cycle;Max_cycle;Signal;HPM_P1;HPM_P2
2022/03/27 00:01:38;;;;;;;20.90;11.47;;;;;;;6.13;64.98;99298.00;5058711;28;20600;-72
2022/03/27 00:04:05;;;;;;;20.40;11.00;;;;;;;6.07;65.58;99298.19;5058404;28;20216;-72
2022/03/27 00:06:31;;;;;;;21.33;11.27;;;;;;;6.00;67.11;99296.69;5062249;28;20233;-72
2022/03/27 00:08:58;;;;;;;24.87;11.37;;;;;;;6.12;68.06;99291.00;5055545;28;20215;-72
2022/03/27 00:11:24;;;;;;;20.43;11.00;;;;;;;6.07;69.05;99290.34;5056767;28;20219;-72
2022/03/27 00:13:51;;;;;;;19.50;11.17;;;;;;;6.12;68.73;99293.63;5058248;28;20668;-72
2022/03/27 00:16:18;;;;;;;19.87;10.70;;;;;;;6.06;69.83;99295.63;5061827;28;20215;-71
2022/03/27 00:18:46;;;;;;;20.97;12.17;;;;;;;6.05;69.48;99289.50;5058666;28;20325;-71
2022/03/27 00:21:13;;;;;;;23.63;11.87;;;;;;;5.96;69.66;99297.69;5054199;28;20215;-72
2022/03/27 00:23:40;;;;;;;24.90;13.13;;;;;;;5.89;69.59;99293.56;5058006;28;20219;-73
2022/03/27 00:26:07;;;;;;;20.13;12.27;;;;;;;5.84;69.76;99290.22;5061338;28;20672;-71
2022/03/27 00:28:34;;;;;;;16.80;10.37;;;;;;;5.83;68.39;99293.75;5058631;28;20594;-71
2022/03/27 00:31:01;;;;;;;20.30;10.67;;;;;;;5.81;68.07;99287.66;5058313;28;20223;-72
2022/03/27 00:33:28;;;;;;;18.57;11.03;;;;;;;5.75;68.15;99287.00;5058234;28;20262;-72
2022/03/27 00:35:57;;;;;;;20.90;10.90;;;;;;;5.74;67.71;99283.50;5061078;28;20215;-71
2022/03/27 00:38:23;;;;;;;20.97;12.07;;;;;;;5.69;68.50;99295.06;5056613;28;20270;-71
2022/03/27 00:40:51;;;;;;;23.03;12.20;;;;;;;5.70;68.56;99292.38;5057678;28;20703;-71
2022/03/27 00:43:18;;;;;;;20.97;11.63;;;;;;;5.71;68.80;99285.38;5057944;28;20222;-73
2022/03/27 00:45:45;;;;;;;20.17;11.87;;;;;;;5.74;68.80;99293.16;5061075;28;20306;-72
2022/03/27 00:48:12;;;;;;;18.43;11.60;;;;;;;5.74;68.52;99293.16;5058426;28;20219;-73
2022/03/27 00:50:38;;;;;;;20.40;11.63;;;;;;;5.64;68.75;99282.09;5057830;28;20216;-72
2022/03/27 00:53:06;;;;;;;19.33;11.37;;;;;;;5.57;68.83;99285.78;5057417;28;20229;-71
2022/03/27 00:55:33;;;;;;;21.00;12.07;;;;;;;5.51;70.71;99291.22;5060401;28;20699;-73
2022/03/27 00:58:01;;;;;;;24.00;11.10;;;;;;;5.45;71.63;99286.16;5058689;28;20238;-72
2022/03/27 01:00:58;;;;;;;20.57;11.57;;;;;;;5.35;72.12;99286.50;5048461;28;20666;-72
2022/03/27 01:03:26;;;;;;;17.87;11.00;;;;;;;5.36;71.75;99286.47;5048010;28;20214;-72
2022/03/27 01:05:57;;;;;;;18.50;11.70;;;;;;;5.32;71.72;99287.44;5058319;28;20218;-71
2022/03/27 01:11:14;;;;;;;21.00;12.10;;;;;;;5.27;72.74;99281.50;5059364;28;20229;-72
2022/03/27 01:13:44;;;;;;;19.13;10.63;;;;;;;5.24;71.98;99283.31;5058899;28;20221;-72
2022/03/27 01:16:16;;;;;;;17.10;11.10;;;;;;;5.21;72.78;99281.69;5047837;28;20552;-71
2022/03/27 01:18:42;;;;;;;20.43;11.87;;;;;;;5.22;71.61;99278.16;5057254;28;20257;-71
2022/03/27 01:21:11;;;;;;;20.03;11.83;;;;;;;5.30;70.84;99276.16;5060457;28;20210;-71
2022/03/27 01:23:37;;;;;;;20.40;11.10;;;;;;;5.37;70.16;99266.34;5057856;28;20218;-72
2022/03/27 01:26:05;;;;;;;22.40;11.23;;;;;;;5.42;69.97;99270.53;5057275;28;20211;-72
2022/03/27 01:28:31;;;;;;;23.33;12.60;;;;;;;5.33;70.24;99270.84;5056892;28;20680;-72
2022/03/27 01:30:58;;;;;;;21.10;11.70;;;;;;;5.20;71.45;99266.00;5058681;28;20571;-72
2022/03/27 01:33:24;;;;;;;22.53;11.43;;;;;;;5.17;72.65;99266.94;5057926;28;20240;-72
2022/03/27 01:35:52;;;;;;;17.23;10.97;;;;;;;5.13;73.30;99267.94;5057157;28;20214;-72
2022/03/27 01:38:20;;;;;;;23.80;11.43;;;;;;;5.10;74.34;99272.41;5056838;28;20325;-73
2022/03/27 01:40:47;;;;;;;23.27;11.70;;;;;;;5.01;73.63;99270.91;5060167;28;20571;-72
2022/03/27 01:43:13;;;;;;;19.00;10.87;;;;;;;4.92;73.94;99265.94;5057917;28;20679;-71
2022/03/27 01:45:41;;;;;;;22.60;12.30;;;;;;;4.83;75.23;99268.81;5047957;28;20436;-72
2022/03/27 01:48:07;;;;;;;21.60;11.53;;;;;;;4.78;74.64;99264.63;5057336;28;20210;-72
2022/03/27 01:50:34;;;;;;;17.83;11.10;;;;;;;4.78;74.74;99260.25;5059802;28;20211;-73
2022/03/27 01:53:01;;;;;;;24.67;11.37;;;;;;;4.74;75.65;99261.22;5058688;28;20228;-72
2022/03/27 01:55:28;;;;;;;22.30;11.53;;;;;;;4.77;75.85;99258.50;5055028;28;20213;-71
2022/03/27 01:57:55;;;;;;;20.50;11.73;;;;;;;4.78;75.18;99262.88;5056828;28;20247;-72
2022/03/27 02:00:21;;;;;;;19.80;11.47;;;;;;;4.79;76.26;99261.97;5059294;28;20229;-71
2022/03/27 02:02:48;;;;;;;23.87;12.60;;;;;;;4.76;76.41;99267.28;5058906;28;20264;-71
2022/03/27 02:05:14;;;;;;;21.60;12.50;;;;;;;4.69;76.48;99257.88;5056579;28;20256;-71
2022/03/27 02:07:42;;;;;;;25.67;12.93;;;;;;;4.66;75.93;99263.22;5056824;28;20249;-71
2022/03/27 02:10:10;;;;;;;24.27;13.30;;;;;;;4.70;76.61;99254.34;5058650;28;20314;-71
2022/03/27 02:12:38;;;;;;;18.70;11.50;;;;;;;4.70;76.07;99256.97;5058709;28;20250;-71
2022/03/27 02:15:06;;;;;;;23.40;11.30;;;;;;;4.69;75.43;99254.38;5056835;28;20215;-72
2022/03/27 02:17:32;;;;;;;20.07;11.60;;;;;;;4.67;76.29;99254.47;5056473;28;20209;-71
2022/03/27 02:20:00;;;;;;;22.40;12.40;;;;;;;4.71;75.31;99253.44;5057157;28;20225;-71
2022/03/27 02:22:26;;;;;;;23.63;13.17;;;;;;;4.65;75.82;99253.63;5055020;28;20236;-72
2022/03/27 02:24:53;;;;;;;21.37;12.17;;;;;;;4.58;76.52;99267.78;5056782;28;20225;-71
2022/03/27 02:27:19;;;;;;;22.03;12.33;;;;;;;4.67;75.41;99264.94;5059268;28;20216;-71
2022/03/27 02:29:47;;;;;;;22.00;11.57;;;;;;;4.70;75.21;99256.13;5061812;28;20210;-73
2022/03/27 02:32:14;;;;;;;25.70;12.53;;;;;;;4.66;74.73;99259.72;5062987;28;20221;-72
2022/03/27 02:34:41;;;;;;;21.23;11.80;;;;;;;4.45;76.46;99260.34;5060374;28;20633;-73
2022/03/27 02:37:08;;;;;;;20.27;12.33;;;;;;;4.36;77.79;99258.81;5060307;28;20244;-72
2022/03/27 02:39:35;;;;;;;23.97;12.87;;;;;;;4.26;77.87;99256.47;5061105;28;20737;-73
2022/03/27 02:42:01;;;;;;;23.30;12.50;;;;;;;4.21;79.29;99267.06;5062679;28;20225;-73
2022/03/27 02:44:28;;;;;;;21.00;12.00;;;;;;;4.19;79.49;99268.88;5059806;28;20221;-73
2022/03/27 02:46:56;;;;;;;21.80;12.23;;;;;;;4.19;79.66;99271.47;5058975;28;20264;-71
2022/03/27 02:49:22;;;;;;;21.87;12.30;;;;;;;4.27;79.34;99259.03;5060168;28;20221;-71
2022/03/27 02:51:48;;;;;;;19.53;11.83;;;;;;;4.29;78.95;99256.41;5063220;28;20589;-71
2022/03/27 02:54:16;;;;;;;18.27;11.47;;;;;;;4.26;79.44;99252.09;5059921;28;20220;-71
2022/03/27 02:56:42;;;;;;;22.13;11.57;;;;;;;4.31;78.92;99252.84;5059785;28;20222;-71
2022/03/27 02:59:09;;;;;;;19.40;11.07;;;;;;;4.35;78.92;99253.63;5060336;28;20239;-72
2022/03/27 03:01:36;;;;;;;19.33;11.67;;;;;;;4.26;79.66;99259.06;5063360;28;20237;-72
2022/03/27 03:04:04;;;;;;;21.53;11.57;;;;;;;4.25;79.35;99257.38;5059763;28;20216;-72
2022/03/27 03:06:32;;;;;;;21.17;12.17;;;;;;;4.26;79.70;99265.19;5059545;28;20227;-72
2022/03/27 03:08:59;;;;;;;19.17;11.43;;;;;;;4.22;79.28;99260.91;5060051;28;20215;-71
2022/03/27 03:11:25;;;;;;;22.93;11.17;;;;;;;4.18;80.13;99254.06;5063320;28;20253;-72
2022/03/27 03:13:52;;;;;;;22.33;11.47;;;;;;;4.17;80.55;99254.94;5057864;28;20577;-72
2022/03/27 03:16:20;;;;;;;20.87;11.57;;;;;;;4.20;80.41;99257.50;5059278;28;20242;-73
2022/03/27 03:18:47;;;;;;;18.40;10.77;;;;;;;4.12;80.40;99262.06;5059371;28;20237;-72
2022/03/27 03:21:16;;;;;;;21.20;12.00;;;;;;;4.05;81.48;99259.66;5062853;28;20693;-72
2022/03/27 03:23:42;;;;;;;21.93;11.57;;;;;;;3.99;81.76;99265.03;5056883;28;20621;-72
2022/03/27 03:26:09;;;;;;;22.80;11.50;;;;;;;4.02;81.43;99270.16;5059572;28;20213;-72
2022/03/27 03:28:37;;;;;;;19.20;11.10;;;;;;;3.99;81.19;99257.19;5059410;28;20231;-72
2022/03/27 03:31:03;;;;;;;17.57;10.83;;;;;;;3.95;81.42;99261.63;5055292;28;20218;-72
2022/03/27 03:33:30;;;;;;;19.67;10.93;;;;;;;3.91;81.12;99261.75;5061877;28;20221;-72
2022/03/27 03:35:56;;;;;;;18.93;11.47;;;;;;;3.98;81.01;99264.16;5059053;28;20235;-73
2022/03/27 03:38:24;;;;;;;18.60;11.70;;;;;;;4.02;80.92;99264.94;5058368;28;20687;-72
2022/03/27 03:40:51;;;;;;;19.27;10.73;;;;;;;4.00;80.89;99262.38;5061161;28;20219;-72
2022/03/27 03:43:20;;;;;;;19.10;10.67;;;;;;;4.02;80.70;99265.81;5059594;28;20213;-73
2022/03/27 03:45:47;;;;;;;20.83;11.70;;;;;;;4.00;80.63;99262.38;5058838;28;20250;-73
2022/03/27 03:48:13;;;;;;;22.73;11.37;;;;;;;3.97;81.05;99270.28;5061733;28;20267;-73
2022/03/27 03:50:40;;;;;;;20.17;11.27;;;;;;;3.90;82.24;99271.34;5062565;28;20211;-72
2022/03/27 03:53:07;;;;;;;24.77;12.23;;;;;;;3.90;82.69;99270.47;5059273;28;20228;-72
2022/03/27 03:55:36;;;;;;;20.23;11.47;;;;;;;3.93;82.51;99267.81;5054355;28;20223;-73
2022/03/27 03:58:02;;;;;;;20.70;10.60;;;;;;;3.87;82.83;99271.44;5058870;28;20208;-72
2022/03/27 04:00:30;;;;;;;20.47;11.43;;;;;;;3.87;83.84;99271.44;5061724;28;20223;-73
2022/03/27 04:02:57;;;;;;;21.17;12.13;;;;;;;3.85;83.86;99267.97;5059286;28;20308;-72
2022/03/27 04:05:23;;;;;;;20.43;11.20;;;;;;;3.72;82.99;99265.72;5056880;28;20216;-73
2022/03/27 04:07:50;;;;;;;19.53;12.23;;;;;;;3.66;82.00;99264.09;5058720;28;20220;-72
2022/03/27 04:10:16;;;;;;;23.03;12.00;;;;;;;3.60;82.22;99271.25;5061543;28;20217;-72
2022/03/27 04:12:44;;;;;;;21.83;11.10;;;;;;;3.48;83.11;99266.31;5059366;28;20213;-72
2022/03/27 04:15:11;;;;;;;19.37;10.67;;;;;;;3.44;83.46;99275.97;5058307;28;20623;-73
2022/03/27 04:17:42;;;;;;;21.53;11.93;;;;;;;3.39;84.43;99266.50;5058426;28;20229;-72
2022/03/27 04:20:10;;;;;;;20.07;11.33;;;;;;;3.38;84.62;99264.78;5058823;28;20765;-72
2022/03/27 04:22:36;;;;;;;20.97;11.97;;;;;;;3.30;85.68;99267.56;5058293;28;20213;-72
2022/03/27 04:25:03;;;;;;;25.37;12.87;;;;;;;3.21;86.48;99267.78;5058162;28;20230;-72
2022/03/27 04:27:30;;;;;;;20.47;12.23;;;;;;;3.19;86.76;99266.94;5058214;28;20216;-71
2022/03/27 04:29:57;;;;;;;23.27;12.73;;;;;;;3.31;86.70;99264.06;5060814;28;20829;-71
2022/03/27 04:32:24;;;;;;;21.20;11.50;;;;;;;3.30;86.40;99262.34;5057248;28;20580;-73
2022/03/27 04:34:51;;;;;;;23.33;12.87;;;;;;;3.15;87.67;99267.91;5049304;28;20214;-72
2022/03/27 04:37:18;;;;;;;25.23;12.73;;;;;;;3.09;88.21;99262.81;5053765;28;20216;-73
2022/03/27 04:39:45;;;;;;;22.23;13.07;;;;;;;3.06;88.74;99265.47;5060717;28;20239;-72
2022/03/27 04:42:12;;;;;;;22.60;13.03;;;;;;;3.04;89.26;99264.66;5058908;28;20216;-73
2022/03/27 04:44:39;;;;;;;21.27;12.30;;;;;;;3.04;89.45;99266.41;5048754;28;20216;-73
2022/03/27 04:47:07;;;;;;;21.80;12.70;;;;;;;3.11;90.07;99263.63;5057843;28;20213;-73
2022/03/27 04:49:34;;;;;;;20.07;12.97;;;;;;;3.03;90.47;99272.53;5060646;28;20238;-73
2022/03/27 04:52:00;;;;;;;24.37;12.47;;;;;;;2.94;91.93;99278.81;5058796;28;20222;-73
2022/03/27 04:54:27;;;;;;;19.53;11.43;;;;;;;2.94;92.07;99273.56;5057553;28;20216;-73
2022/03/27 04:56:53;;;;;;;24.03;12.83;;;;;;;2.93;92.01;99276.25;5056903;28;20212;-73
2022/03/27 04:59:20;;;;;;;17.93;11.53;;;;;;;2.95;91.53;99285.72;5059065;28;20246;-72
2022/03/27 05:01:46;;;;;;;20.97;12.07;;;;;;;3.03;91.13;99278.63;5059384;28;20235;-71
2022/03/27 05:04:14;;;;;;;24.63;13.43;;;;;;;3.10;90.84;99274.97;5057276;28;20229;-72
2022/03/27 05:06:40;;;;;;;22.93;12.40;;;;;;;3.13;90.49;99280.13;5057441;28;20218;-72
2022/03/27 05:09:07;;;;;;;21.77;12.30;;;;;;;3.17;89.66;99281.78;5059265;28;20212;-72
2022/03/27 05:11:33;;;;;;;21.33;11.93;;;;;;;3.25;88.46;99285.09;5057121;28;20672;-72
2022/03/27 05:14:00;;;;;;;19.20;11.03;;;;;;;3.26;87.94;99292.06;5057506;28;20213;-71
2022/03/27 05:16:26;;;;;;;21.57;12.07;;;;;;;3.23;87.52;99286.00;5057237;28;20228;-72
2022/03/27 05:18:53;;;;;;;18.53;11.00;;;;;;;3.27;87.55;99285.06;5058296;28;20753;-71
2022/03/27 05:21:23;;;;;;;20.90;11.13;;;;;;;3.26;87.52;99285.97;5059747;28;20208;-72
2022/03/27 05:23:49;;;;;;;24.40;11.17;;;;;;;3.26;87.70;99286.84;5055730;28;20611;-71
2022/03/27 05:26:16;;;;;;;23.37;11.53;;;;;;;3.33;87.72;99290.16;5057095;28;20688;-71
2022/03/27 05:28:42;;;;;;;22.07;12.23;;;;;;;3.22;88.48;99279.94;5058391;28;20212;-73
2022/03/27 05:31:09;;;;;;;19.10;11.40;;;;;;;3.21;88.20;99282.59;5060102;28;20212;-72
2022/03/27 05:33:37;;;;;;;19.60;12.07;;;;;;;3.14;89.05;99281.88;5056981;28;20215;-72
2022/03/27 05:36:05;;;;;;;24.73;12.77;;;;;;;3.03;88.29;99286.47;5057137;28;20629;-72
2022/03/27 05:38:33;;;;;;;22.20;12.93;;;;;;;2.97;87.87;99291.81;5058058;28;20225;-73
2022/03/27 05:41:00;;;;;;;20.53;11.73;;;;;;;2.95;88.63;99290.97;5059650;28;20681;-72
2022/03/27 05:43:27;;;;;;;20.73;12.90;;;;;;;2.95;90.26;99296.19;5057181;28;20212;-72
2022/03/27 05:45:53;;;;;;;24.27;13.13;;;;;;;2.99;91.02;99291.78;5057118;28;20215;-72
2022/03/27 05:48:20;;;;;;;21.20;13.27;;;;;;;3.08;90.64;99288.97;5057681;28;20704;-73
2022/03/27 05:50:46;;;;;;;24.20;12.43;;;;;;;3.12;90.75;99298.47;5058393;28;20215;-72
2022/03/27 05:53:13;;;;;;;21.27;12.63;;;;;;;3.21;90.56;99304.34;5056904;28;20209;-73
2022/03/27 05:55:41;;;;;;;20.87;12.20;;;;;;;3.31;89.79;99305.84;5056972;28;20240;-72
2022/03/27 05:58:08;;;;;;;20.27;12.13;;;;;;;3.39;89.81;99308.31;5057587;28;20212;-72
2022/03/27 06:00:34;;;;;;;23.07;12.67;;;;;;;3.47;89.88;99307.25;5060380;28;20288;-73
2022/03/27 06:03:02;;;;;;;26.13;12.30;;;;;;;3.55;89.34;99310.53;5060695;28;20220;-71
2022/03/27 06:05:28;;;;;;;18.43;11.13;;;;;;;3.65;89.01;99306.81;5060977;28;20220;-71
2022/03/27 06:07:57;;;;;;;23.23;12.43;;;;;;;3.75;88.25;99302.25;5060999;28;20216;-72
2022/03/27 06:10:25;;;;;;;21.20;11.07;;;;;;;3.92;86.34;99300.94;5064409;28;20216;-71
2022/03/27 06:12:53;;;;;;;24.03;11.07;;;;;;;4.09;84.42;99301.38;5060443;28;20210;-72
2022/03/27 06:15:21;;;;;;;21.53;10.63;;;;;;;4.16;83.88;99300.31;5058829;28;20212;-72
2022/03/27 06:17:48;;;;;;;23.33;11.10;;;;;;;4.29;83.91;99301.72;5060960;28;20214;-72
2022/03/27 06:20:17;;;;;;;20.33;10.90;;;;;;;4.39;84.12;99297.97;5060800;28;20239;-72
2022/03/27 06:22:44;;;;;;;20.40;11.23;;;;;;;4.49;82.79;99309.94;5060735;28;20217;-72
2022/03/27 06:25:12;;;;;;;20.50;10.73;;;;;;;4.57;82.49;99302.72;5060458;28;20248;-71
2022/03/27 06:27:39;;;;;;;21.87;11.47;;;;;;;4.68;81.20;99308.53;5061298;28;20213;-72
2022/03/27 06:30:09;;;;;;;18.93;11.13;;;;;;;4.85;80.25;99308.06;5063545;28;20216;-72
2022/03/27 06:32:37;;;;;;;21.60;10.63;;;;;;;4.99;79.36;99306.78;5060149;28;20678;-72
2022/03/27 06:35:05;;;;;;;20.07;11.97;;;;;;;5.12;79.88;99308.16;5060467;28;20214;-72
2022/03/27 06:37:32;;;;;;;20.97;12.20;;;;;;;5.18;78.95;99304.47;5061565;28;20255;-71
2022/03/27 06:39:59;;;;;;;23.17;11.90;;;;;;;5.24;78.71;99302.56;5062787;28;20240;-71
2022/03/27 06:42:27;;;;;;;24.07;12.70;;;;;;;5.32;79.15;99311.03;5058196;28;20216;-72
2022/03/27 06:44:54;;;;;;;25.83;12.90;;;;;;;5.42;79.07;99309.88;5060249;28;20222;-72
2022/03/27 06:47:24;;;;;;;23.13;12.67;;;;;;;5.55;78.28;99313.84;5061004;28;20223;-72
2022/03/27 06:49:52;;;;;;;27.47;12.17;;;;;;;5.68;78.22;99309.09;5062368;28;20216;-72
2022/03/27 06:52:19;;;;;;;19.30;11.83;;;;;;;5.77;77.42;99307.03;5059629;28;20218;-72
2022/03/27 06:54:46;;;;;;;21.53;12.40;;;;;;;5.90;78.11;99310.13;5060101;28;20215;-73
2022/03/27 06:57:14;;;;;;;22.00;12.50;;;;;;;6.00;77.54;99312.44;5061367;28;20219;-72
2022/03/27 07:05:14;;;;;;;18.90;11.50;;;;;;;6.43;74.71;99312.72;5061508;28;20217;-72
2022/03/27 07:07:40;;;;;;;20.73;12.43;;;;;;;6.60;73.69;99310.34;5059557;28;20217;-73
2022/03/27 07:10:07;;;;;;;23.23;13.07;;;;;;;6.75;73.06;99315.09;5059622;28;20582;-71
2022/03/27 07:12:34;;;;;;;22.43;13.43;;;;;;;6.85;75.54;99316.47;5058126;28;20226;-72
2022/03/27 07:15:00;;;;;;;19.23;12.83;;;;;;;7.00;76.27;99315.94;5061459;28;20212;-71
2022/03/27 07:17:28;;;;;;;19.83;12.50;;;;;;;7.14;76.51;99324.16;5061300;28;20215;-71
2022/03/27 07:19:54;;;;;;;20.00;12.23;;;;;;;7.23;76.08;99318.56;5058989;28;20246;-71
2022/03/27 07:22:21;;;;;;;19.23;11.93;;;;;;;7.38;74.22;99327.69;5059066;28;20218;-72
2022/03/27 07:24:47;;;;;;;20.70;12.97;;;;;;;7.44;73.43;99321.25;5061023;28;20210;-72
2022/03/27 07:27:14;;;;;;;20.40;13.30;;;;;;;7.57;73.60;99314.63;5057470;28;20221;-72
2022/03/27 07:29:41;;;;;;;23.80;12.70;;;;;;;7.72;73.22;99323.69;5059338;28;20269;-72
2022/03/27 07:32:11;;;;;;;22.50;13.77;;;;;;;7.90;72.54;99328.22;5058997;28;20242;-72
2022/03/27 07:34:40;;;;;;;21.63;12.17;;;;;;;8.11;72.02;99330.00;5058944;28;20250;-72
2022/03/27 07:37:08;;;;;;;22.70;13.27;;;;;;;8.29;71.32;99327.50;5061172;28;20676;-72
2022/03/27 07:39:34;;;;;;;21.80;12.50;;;;;;;8.46;70.57;99334.72;5058971;28;20243;-72
2022/03/27 07:42:01;;;;;;;24.00;12.87;;;;;;;8.57;70.13;99322.78;5059036;28;20212;-72
2022/03/27 07:44:27;;;;;;;19.43;13.40;;;;;;;8.75;68.79;99336.97;5060389;28;20772;-72
2022/03/27 07:46:58;;;;;;;19.80;12.57;;;;;;;8.90;68.79;99331.03;5061240;28;20254;-72
2022/03/27 07:49:25;;;;;;;24.60;12.50;;;;;;;9.06;68.47;99332.91;5058882;28;20310;-71
2022/03/27 07:51:53;;;;;;;19.57;12.67;;;;;;;9.15;67.44;99342.22;5058592;28;20223;-71
2022/03/27 07:54:20;;;;;;;19.80;11.93;;;;;;;9.29;66.09;99329.25;5060678;28;20235;-71
2022/03/27 07:56:46;;;;;;;21.33;11.83;;;;;;;9.35;64.80;99334.25;5060775;28;20211;-71
2022/03/27 07:59:13;;;;;;;18.60;11.87;;;;;;;9.43;64.88;99332.13;5058545;28;20227;-71
2022/03/27 08:01:39;;;;;;;22.10;12.03;;;;;;;9.48;63.66;99330.16;5056970;28;20323;-72
2022/03/27 08:04:06;;;;;;;21.13;12.60;;;;;;;9.68;63.47;99330.09;5058943;28;20542;-71
2022/03/27 08:06:36;;;;;;;18.10;12.33;;;;;;;9.79;63.86;99328.63;5058196;28;20215;-71
2022/03/27 08:09:05;;;;;;;16.97;11.87;;;;;;;9.93;65.42;99333.28;5057531;28;20219;-72
2022/03/27 08:11:31;;;;;;;21.83;12.27;;;;;;;10.08;64.89;99322.00;5057512;28;20216;-72
2022/03/27 08:13:58;;;;;;;16.90;10.53;;;;;;;10.23;62.13;99327.41;5058528;28;20223;-72
2022/03/27 08:16:26;;;;;;;16.97;11.03;;;;;;;10.31;61.93;99330.53;5060834;28;20211;-71
2022/03/27 08:18:52;;;;;;;18.60;11.83;;;;;;;10.38;62.02;99325.78;5057950;28;20224;-72
2022/03/27 08:21:19;;;;;;;17.80;11.00;;;;;;;10.59;62.95;99328.19;5054949;28;20225;-72
2022/03/27 08:23:45;;;;;;;18.50;11.50;;;;;;;10.75;60.21;99331.78;5059430;28;20566;-72
2022/03/27 08:29:02;;;;;;;15.50;10.93;;;;;;;10.88;60.44;99334.69;5053119;28;20701;-72
2022/03/27 08:31:29;;;;;;;15.97;10.90;;;;;;;10.91;60.02;99321.28;5058213;28;20258;-70
2022/03/27 08:33:56;;;;;;;16.40;11.13;;;;;;;11.00;60.54;99326.13;5061887;28;20213;-72
2022/03/27 08:36:22;;;;;;;17.07;11.47;;;;;;;11.15;61.70;99325.28;5055317;28;20305;-74
2022/03/27 08:38:49;;;;;;;16.90;11.53;;;;;;;11.34;59.89;99326.91;5058031;28;20576;-72
2022/03/27 08:41:17;;;;;;;17.87;10.97;;;;;;;11.39;59.79;99324.00;5057706;28;20274;-73
2022/03/27 08:43:44;;;;;;;18.50;10.87;;;;;;;11.46;59.66;99320.94;5053423;28;20220;-73
2022/03/27 08:46:12;;;;;;;19.30;11.10;;;;;;;11.62;60.00;99321.84;5057890;28;20236;-73
2022/03/27 08:48:43;;;;;;;15.93;10.43;;;;;;;11.77;58.80;99323.66;5057626;28;20217;-73
2022/03/27 08:51:29;;;;;;;16.03;10.47;;;;;;;11.98;59.42;99318.97;5058122;28;20228;-75
2022/03/27 08:54:02;;;;;;;16.83;10.67;;;;;;;12.11;58.77;99325.28;5053055;28;20213;-76
2022/03/27 08:56:31;;;;;;;17.10;10.53;;;;;;;12.20;56.91;99319.44;5048794;28;20773;-74
2022/03/27 08:58:59;;;;;;;15.90;10.37;;;;;;;12.29;57.58;99329.53;5057288;28;20702;-74
2022/03/27 09:01:27;;;;;;;17.90;10.73;;;;;;;12.51;58.14;99316.75;5052804;28;20247;-74
2022/03/27 09:03:53;;;;;;;15.50;10.07;;;;;;;12.71;56.29;99321.75;5054420;28;20703;-74
2022/03/27 09:06:22;;;;;;;15.43;10.13;;;;;;;12.85;55.37;99324.44;5057389;28;20690;-73
2022/03/27 09:08:50;;;;;;;16.13;9.93;;;;;;;13.01;55.13;99320.78;5057691;28;20262;-74
2022/03/27 09:11:19;;;;;;;15.33;10.10;;;;;;;13.15;54.13;99317.31;5053032;28;20672;-74
2022/03/27 09:13:52;;;;;;;17.73;10.77;;;;;;;13.18;54.79;99315.31;5055010;28;20246;-74
2022/03/27 09:16:19;;;;;;;13.73;9.27;;;;;;;13.25;54.26;99324.63;5057233;28;20215;-73
2022/03/27 09:18:48;;;;;;;18.27;10.50;;;;;;;13.36;53.78;99323.94;5056592;28;20242;-73
2022/03/27 09:21:15;;;;;;;14.67;9.90;;;;;;;13.47;54.94;99318.84;5060112;28;20238;-73
2022/03/27 09:23:42;;;;;;;16.47;10.20;;;;;;;13.63;53.53;99319.59;5057399;28;20211;-73
2022/03/27 09:26:13;;;;;;;15.70;10.10;;;;;;;13.73;51.11;99321.56;5057393;28;20221;-74
2022/03/27 09:28:42;;;;;;;15.50;10.17;;;;;;;13.78;51.35;99324.81;5057111;28;20274;-73
2022/03/27 09:31:24;;;;;;;14.37;9.63;;;;;;;13.82;51.39;99315.66;5056794;28;20212;-73
2022/03/27 09:33:52;;;;;;;14.90;10.10;;;;;;;13.96;51.67;99306.81;5057236;28;20558;-73
2022/03/27 09:36:21;;;;;;;14.33;10.50;;;;;;;14.01;52.10;99310.91;5056454;28;21584;-73
2022/03/27 09:39:11;;;;;;;16.27;10.20;;;;;;;14.26;50.71;99312.84;5052859;28;20214;-73
2022/03/27 09:41:41;;;;;;;18.70;10.20;;;;;;;14.32;50.98;99299.16;5057099;28;20239;-75
2022/03/27 09:44:09;;;;;;;18.00;9.93;;;;;;;14.35;49.76;99314.91;5056601;28;20215;-73
2022/03/27 09:46:56;;;;;;;18.87;11.00;;;;;;;14.48;50.07;99305.16;5059763;28;20211;-73
2022/03/27 09:49:26;;;;;;;17.30;11.07;;;;;;;14.59;48.81;99303.47;5055894;28;20744;-74
2022/03/27 09:51:59;;;;;;;16.63;11.13;;;;;;;14.60;49.23;99307.00;5057139;28;20266;-74
2022/03/27 09:54:27;;;;;;;15.03;10.83;;;;;;;14.68;50.07;99296.69;5060288;28;20590;-73
2022/03/27 09:56:54;;;;;;;16.73;10.73;;;;;;;14.88;49.50;99297.06;5057914;28;20212;-74
2022/03/27 09:59:28;;;;;;;18.00;11.67;;;;;;;14.94;49.54;99296.63;5048518;28;20577;-74
2022/03/27 10:02:16;;;;;;;17.63;11.60;;;;;;;15.10;47.85;99299.09;5056796;28;20254;-74
2022/03/27 10:04:52;;;;;;;16.83;10.73;;;;;;;15.01;48.96;99295.25;5055906;28;20262;-74
2022/03/27 10:07:18;;;;;;;17.87;10.93;;;;;;;15.11;47.99;99284.81;5048782;28;20704;-73
2022/03/27 10:09:45;;;;;;;14.13;10.20;;;;;;;15.20;48.69;99284.16;5056972;28;20212;-73
2022/03/27 10:12:13;;;;;;;17.27;10.17;;;;;;;15.32;47.00;99288.63;5058568;28;20218;-75
2022/03/27 10:14:41;;;;;;;18.17;10.30;;;;;;;15.44;46.89;99288.69;5057115;28;20219;-73
2022/03/27 10:17:10;;;;;;;14.70;10.50;;;;;;;15.69;46.01;99287.78;5056619;28;20216;-73
2022/03/27 10:19:43;;;;;;;18.80;11.93;;;;;;;15.64;45.54;99284.59;5056494;28;20212;-74
2022/03/27 10:22:13;;;;;;;15.07;10.40;;;;;;;15.57;47.35;99284.19;5055385;28;20270;-73
2022/03/27 10:24:45;;;;;;;15.60;10.93;;;;;;;15.66;47.36;99285.34;5056396;28;20223;-74
2022/03/27 10:27:13;;;;;;;17.93;11.57;;;;;;;15.76;46.31;99278.41;5056469;28;20258;-73
2022/03/27 10:29:40;;;;;;;17.10;11.10;;;;;;;15.82;46.55;99277.97;5058471;28;20222;-73
2022/03/27 10:32:12;;;;;;;15.37;11.60;;;;;;;15.94;46.62;99274.41;5058904;28;20217;-73
2022/03/27 10:34:45;;;;;;;17.50;11.40;;;;;;;16.15;47.02;99261.19;5056287;28;20212;-72
2022/03/27 10:37:21;;;;;;;18.60;11.70;;;;;;;16.26;45.95;99258.56;5054984;28;20216;-74
2022/03/27 10:39:56;;;;;;;15.87;11.30;;;;;;;16.25;45.88;99256.00;5052678;28;20218;-74
2022/03/27 10:42:31;;;;;;;20.37;11.80;;;;;;;16.15;45.23;99249.69;5054438;28;20239;-72
2022/03/27 10:45:03;;;;;;;17.60;11.57;;;;;;;16.18;46.01;99244.09;5056398;28;20211;-72
2022/03/27 10:47:31;;;;;;;16.43;11.40;;;;;;;16.43;41.93;99249.34;5060122;28;20216;-72
2022/03/27 10:50:24;;;;;;;18.90;11.83;;;;;;;16.25;44.10;99246.22;5061012;28;20215;-74
2022/03/27 10:53:08;;;;;;;18.40;11.10;;;;;;;16.34;46.07;99248.16;5054499;28;20223;-73
2022/03/27 10:55:42;;;;;;;16.00;10.77;;;;;;;16.51;46.43;99245.13;5056520;28;20211;-74
2022/03/27 10:58:32;;;;;;;17.37;11.57;;;;;;;16.81;45.70;99234.78;5059754;28;20216;-72
2022/03/27 11:00:59;;;;;;;18.13;11.77;;;;;;;16.97;45.99;99251.34;5060022;28;20235;-73
2022/03/27 11:03:50;;;;;;;20.57;11.53;;;;;;;17.08;43.43;99235.28;5061508;28;20626;-73
2022/03/27 11:06:27;;;;;;;19.73;11.27;;;;;;;17.10;42.88;99228.03;5051386;28;20216;-72
2022/03/27 11:08:56;;;;;;;19.40;11.53;;;;;;;17.32;42.73;99230.69;5060617;28;20208;-73
2022/03/27 11:12:02;;;;;;;15.70;10.97;;;;;;;17.27;43.07;99226.69;5062656;28;20219;-73
2022/03/27 11:15:02;;;;;;;18.23;11.47;;;;;;;17.20;42.54;99220.16;5053982;28;20223;-73
2022/03/27 11:17:37;;;;;;;19.37;11.23;;;;;;;17.43;42.41;99214.69;5058438;28;20215;-72
2022/03/27 11:20:06;;;;;;;14.60;9.60;;;;;;;17.61;43.11;99221.25;5051413;28;20211;-73
2022/03/27 11:22:51;;;;;;;17.03;10.30;;;;;;;17.74;41.12;99211.25;5059121;28;20713;-73
2022/03/27 11:25:36;;;;;;;16.90;11.10;;;;;;;17.77;40.80;99204.81;5057704;28;20207;-72
2022/03/27 11:28:08;;;;;;;18.93;10.67;;;;;;;17.71;40.05;99211.53;5052126;28;20211;-74
2022/03/27 11:30:37;;;;;;;14.13;9.70;;;;;;;17.48;39.75;99193.81;5059605;28;20246;-72
2022/03/27 11:33:18;;;;;;;15.60;9.77;;;;;;;17.46;39.64;99195.75;5061605;28;20257;-74
2022/03/27 11:36:18;;;;;;;14.10;9.30;;;;;;;17.78;39.28;99190.47;5050485;28;20216;-73
2022/03/27 11:39:02;;;;;;;17.13;9.90;;;;;;;18.01;38.28;99186.75;5062606;28;20222;-75
2022/03/27 11:41:31;;;;;;;14.50;9.63;;;;;;;18.13;39.00;99191.94;5058205;28;20247;-72
2022/03/27 11:44:19;;;;;;;13.97;9.50;;;;;;;18.37;39.75;99192.63;5058921;28;20674;-72